sensor_id;sensor_type;location;lat;lon;timestamp;temperature;humidity
34542;DHT22;20784;51.332;12.410;2023-12-20T00:00:00;6.10;99.90
34542;DHT22;20784;51.332;12.410;2023-12-20T00:02:25;6.30;99.90
34542;DHT22;20784;51.332;12.410;2023-12-20T00:04:51;6.20;99.90
34542;DHT22;20784;51.332;12.410;2023-12-20T00:07:19;6.10;99.90
34542;DHT22;20784;51.332;12.410;2023-12-20T00:09:47;6.10;99.90
34542;DHT22;20784;51.332;12.410;2023-12-20T00:12:13;6.10;99.90
34542;DHT22;20784;51.332;12.410;2023-12-20T00:14:38;6.10;99.90
34542;DHT22;20784;51.332;12.410;2023-12-20T00:17:06;6.10;99.90
34542;DHT22;20784;51.332;12.410;2023-12-20T00:19:34;6.00;99.90
34542;DHT22;20784;51.332;12.410;2023-12-20T00:22:00;6.00;99.90
34542;DHT22;20784;51.332;12.410;2023-12-20T00:24:25;6.10;99.90
34542;DHT22;20784;51.332;12.410;2023-12-20T00:26:51;6.10;99.90
34542;DHT22;20784;51.332;12.410;2023-12-20T00:29:19;6.10;99.90
34542;DHT22;20784;51.332;12.410;2023-12-20T00:31:45;5.90;99.90
34542;DHT22;20784;51.332;12.410;2023-12-20T00:34:10;6.00;99.90
34542;DHT22;20784;51.332;12.410;2023-12-20T00:36:36;6.10;99.90
34542;DHT22;20784;51.332;12.410;2023-12-20T00:39:04;6.00;99.90
34542;DHT22;20784;51.332;12.410;2023-12-20T00:41:30;6.00;99.90
34542;DHT22;20784;51.332;12.410;2023-12-20T00:43:55;6.00;99.90
34542;DHT22;20784;51.332;12.410;2023-12-20T00:46:21;6.20;99.90
34542;DHT22;20784;51.332;12.410;2023-12-20T00:48:49;5.90;99.90
34542;DHT22;20784;51.332;12.410;2023-12-20T00:51:19;5.90;99.90
34542;DHT22;20784;51.332;12.410;2023-12-20T00:53:57;5.90;99.90
34542;DHT22;20784;51.332;12.410;2023-12-20T00:56:23;5.90;99.90
34542;DHT22;20784;51.332;12.410;2023-12-20T00:58:49;6.00;99.90
34542;DHT22;20784;51.332;12.410;2023-12-20T01:01:15;6.00;99.90
34542;DHT22;20784;51.332;12.410;2023-12-20T01:03:40;6.00;99.90
34542;DHT22;20784;51.332;12.410;2023-12-20T01:06:06;6.00;99.90
34542;DHT22;20784;51.332;12.410;2023-12-20T01:08:32;6.00;99.90
34542;DHT22;20784;51.332;12.410;2023-12-20T01:10:59;6.00;99.90
34542;DHT22;20784;51.332;12.410;2023-12-20T01:13:27;6.00;99.90
34542;DHT22;20784;51.332;12.410;2023-12-20T01:15:53;6.00;99.90
34542;DHT22;20784;51.332;12.410;2023-12-20T01:18:18;6.00;99.90
34542;DHT22;20784;51.332;12.410;2023-12-20T01:20:44;6.00;99.90
34542;DHT22;20784;51.332;12.410;2023-12-20T01:23:10;5.90;99.90
34542;DHT22;20784;51.332;12.410;2023-12-20T01:25:35;5.90;99.90
34542;DHT22;20784;51.332;12.410;2023-12-20T01:28:01;5.90;99.90
34542;DHT22;20784;51.332;12.410;2023-12-20T01:30:31;6.20;99.90
34542;DHT22;20784;51.332;12.410;2023-12-20T01:32:56;6.10;99.90
34542;DHT22;20784;51.332;12.410;2023-12-20T01:35:22;6.00;99.90
34542;DHT22;20784;51.332;12.410;2023-12-20T01:37:48;6.00;99.90
34542;DHT22;20784;51.332;12.410;2023-12-20T01:40:13;5.90;99.90
34542;DHT22;20784;51.332;12.410;2023-12-20T01:42:40;5.90;99.90
34542;DHT22;20784;51.332;12.410;2023-12-20T01:45:06;5.90;99.90
34542;DHT22;20784;51.332;12.410;2023-12-20T01:47:32;6.00;99.90
34542;DHT22;20784;51.332;12.410;2023-12-20T01:50:07;6.00;99.90
34542;DHT22;20784;51.332;12.410;2023-12-20T01:52:34;5.90;99.90
34542;DHT22;20784;51.332;12.410;2023-12-20T01:55:01;5.90;99.90
34542;DHT22;20784;51.332;12.410;2023-12-20T01:57:28;6.00;99.90
34542;DHT22;20784;51.332;12.410;2023-12-20T01:59:54;6.00;99.90
34542;DHT22;20784;51.332;12.410;2023-12-20T02:02:20;6.00;99.90
34542;DHT22;20784;51.332;12.410;2023-12-20T02:04:46;6.00;99.90
34542;DHT22;20784;51.332;12.410;2023-12-20T02:07:13;6.00;99.90
34542;DHT22;20784;51.332;12.410;2023-12-20T02:09:41;5.90;99.90
34542;DHT22;20784;51.332;12.410;2023-12-20T02:12:08;6.20;99.90
34542;DHT22;20784;51.332;12.410;2023-12-20T02:14:33;5.90;99.90
34542;DHT22;20784;51.332;12.410;2023-12-20T02:17:02;5.90;99.90
34542;DHT22;20784;51.332;12.410;2023-12-20T02:19:28;5.90;99.90
34542;DHT22;20784;51.332;12.410;2023-12-20T02:22:12;5.90;99.90
34542;DHT22;20784;51.332;12.410;2023-12-20T02:24:38;5.90;99.90
34542;DHT22;20784;51.332;12.410;2023-12-20T02:27:08;6.00;99.90
34542;DHT22;20784;51.332;12.410;2023-12-20T02:29:34;6.00;99.90
34542;DHT22;20784;51.332;12.410;2023-12-20T02:32:01;5.90;99.90
34542;DHT22;20784;51.332;12.410;2023-12-20T02:34:26;6.00;99.90
34542;DHT22;20784;51.332;12.410;2023-12-20T02:36:52;6.00;99.90
34542;DHT22;20784;51.332;12.410;2023-12-20T02:39:19;6.00;99.90
34542;DHT22;20784;51.332;12.410;2023-12-20T02:41:44;6.00;99.90
34542;DHT22;20784;51.332;12.410;2023-12-20T02:44:10;6.00;99.90
34542;DHT22;20784;51.332;12.410;2023-12-20T02:46:44;6.00;99.90
34542;DHT22;20784;51.332;12.410;2023-12-20T02:49:12;5.90;99.90
34542;DHT22;20784;51.332;12.410;2023-12-20T02:51:38;5.80;99.90
34542;DHT22;20784;51.332;12.410;2023-12-20T02:54:04;5.90;99.90
34542;DHT22;20784;51.332;12.410;2023-12-20T02:56:30;5.90;99.90
34542;DHT22;20784;51.332;12.410;2023-12-20T02:59:01;6.10;99.90
34542;DHT22;20784;51.332;12.410;2023-12-20T03:01:31;6.00;99.90
34542;DHT22;20784;51.332;12.410;2023-12-20T03:03:57;5.90;99.90
34542;DHT22;20784;51.332;12.410;2023-12-20T03:06:22;5.80;99.90
34542;DHT22;20784;51.332;12.410;2023-12-20T03:08:48;5.90;99.90
34542;DHT22;20784;51.332;12.410;2023-12-20T03:11:14;5.90;99.90
34542;DHT22;20784;51.332;12.410;2023-12-20T03:13:40;6.10;99.90
34542;DHT22;20784;51.332;12.410;2023-12-20T03:16:12;5.90;99.90
34542;DHT22;20784;51.332;12.410;2023-12-20T03:18:40;5.90;99.90
34542;DHT22;20784;51.332;12.410;2023-12-20T03:21:08;5.90;99.90
34542;DHT22;20784;51.332;12.410;2023-12-20T03:23:34;6.00;99.90
34542;DHT22;20784;51.332;12.410;2023-12-20T03:26:00;5.80;99.90
34542;DHT22;20784;51.332;12.410;2023-12-20T03:28:29;5.90;99.90
34542;DHT22;20784;51.332;12.410;2023-12-20T03:30:55;6.00;99.90
34542;DHT22;20784;51.332;12.410;2023-12-20T03:33:27;6.00;99.90
34542;DHT22;20784;51.332;12.410;2023-12-20T03:35:55;5.90;99.90
34542;DHT22;20784;51.332;12.410;2023-12-20T03:38:21;5.90;99.90
34542;DHT22;20784;51.332;12.410;2023-12-20T03:40:54;6.00;99.90
34542;DHT22;20784;51.332;12.410;2023-12-20T03:43:25;5.90;99.90
34542;DHT22;20784;51.332;12.410;2023-12-20T03:45:56;5.90;99.90
34542;DHT22;20784;51.332;12.410;2023-12-20T03:48:30;6.00;99.90
34542;DHT22;20784;51.332;12.410;2023-12-20T03:50:57;5.90;99.90
34542;DHT22;20784;51.332;12.410;2023-12-20T03:53:22;6.00;99.90
34542;DHT22;20784;51.332;12.410;2023-12-20T03:55:51;5.90;99.90
34542;DHT22;20784;51.332;12.410;2023-12-20T03:58:17;5.90;99.90
34542;DHT22;20784;51.332;12.410;2023-12-20T04:00:42;5.90;99.90
34542;DHT22;20784;51.332;12.410;2023-12-20T04:03:08;5.90;99.90
34542;DHT22;20784;51.332;12.410;2023-12-20T04:05:34;5.90;99.90
34542;DHT22;20784;51.332;12.410;2023-12-20T04:08:13;5.90;99.90
34542;DHT22;20784;51.332;12.410;2023-12-20T04:10:49;6.00;99.90
34542;DHT22;20784;51.332;12.410;2023-12-20T04:13:17;6.00;99.90
34542;DHT22;20784;51.332;12.410;2023-12-20T04:15:43;6.00;99.90
34542;DHT22;20784;51.332;12.410;2023-12-20T04:18:18;6.00;99.90
34542;DHT22;20784;51.332;12.410;2023-12-20T04:20:46;6.00;99.90
34542;DHT22;20784;51.332;12.410;2023-12-20T04:23:14;6.00;99.90
34542;DHT22;20784;51.332;12.410;2023-12-20T04:25:43;6.00;99.90
34542;DHT22;20784;51.332;12.410;2023-12-20T04:28:16;6.00;99.90
34542;DHT22;20784;51.332;12.410;2023-12-20T04:30:42;6.10;99.90
34542;DHT22;20784;51.332;12.410;2023-12-20T04:33:16;6.00;99.90
34542;DHT22;20784;51.332;12.410;2023-12-20T04:35:42;6.10;99.90
34542;DHT22;20784;51.332;12.410;2023-12-20T04:38:08;6.20;99.90
34542;DHT22;20784;51.332;12.410;2023-12-20T04:40:37;6.10;99.90
34542;DHT22;20784;51.332;12.410;2023-12-20T04:43:13;6.10;99.90
34542;DHT22;20784;51.332;12.410;2023-12-20T04:45:39;6.10;99.90
34542;DHT22;20784;51.332;12.410;2023-12-20T04:48:05;6.00;99.90
34542;DHT22;20784;51.332;12.410;2023-12-20T04:50:33;6.10;99.90
34542;DHT22;20784;51.332;12.410;2023-12-20T04:52:59;6.10;99.90
34542;DHT22;20784;51.332;12.410;2023-12-20T04:55:30;6.00;99.90
34542;DHT22;20784;51.332;12.410;2023-12-20T04:57:59;6.10;99.90
34542;DHT22;20784;51.332;12.410;2023-12-20T05:00:25;6.20;99.90
34542;DHT22;20784;51.332;12.410;2023-12-20T05:02:52;6.20;99.90
34542;DHT22;20784;51.332;12.410;2023-12-20T05:05:27;6.20;99.90
34542;DHT22;20784;51.332;12.410;2023-12-20T05:08:11;6.20;99.90
34542;DHT22;20784;51.332;12.410;2023-12-20T05:10:39;6.10;99.90
34542;DHT22;20784;51.332;12.410;2023-12-20T05:13:05;6.20;99.90
34542;DHT22;20784;51.332;12.410;2023-12-20T05:15:34;6.20;99.90
34542;DHT22;20784;51.332;12.410;2023-12-20T05:18:02;6.20;99.90
34542;DHT22;20784;51.332;12.410;2023-12-20T05:20:28;6.30;99.90
34542;DHT22;20784;51.332;12.410;2023-12-20T05:22:56;6.30;99.90
34542;DHT22;20784;51.332;12.410;2023-12-20T05:25:22;6.30;99.90
34542;DHT22;20784;51.332;12.410;2023-12-20T05:27:48;6.30;99.90
34542;DHT22;20784;51.332;12.410;2023-12-20T05:30:13;6.30;99.90
34542;DHT22;20784;51.332;12.410;2023-12-20T05:32:39;6.30;99.90
34542;DHT22;20784;51.332;12.410;2023-12-20T05:35:08;6.30;99.90
34542;DHT22;20784;51.332;12.410;2023-12-20T05:37:39;6.30;99.90
34542;DHT22;20784;51.332;12.410;2023-12-20T05:40:09;6.40;99.90
34542;DHT22;20784;51.332;12.410;2023-12-20T05:42:45;6.30;99.90
34542;DHT22;20784;51.332;12.410;2023-12-20T05:45:15;6.40;99.90
34542;DHT22;20784;51.332;12.410;2023-12-20T05:47:40;6.40;99.90
34542;DHT22;20784;51.332;12.410;2023-12-20T05:50:06;6.40;99.90
34542;DHT22;20784;51.332;12.410;2023-12-20T05:52:34;6.40;99.90
34542;DHT22;20784;51.332;12.410;2023-12-20T05:55:06;6.50;99.90
34542;DHT22;20784;51.332;12.410;2023-12-20T05:57:35;6.50;99.90
34542;DHT22;20784;51.332;12.410;2023-12-20T06:00:03;6.50;99.90
34542;DHT22;20784;51.332;12.410;2023-12-20T06:02:29;6.60;99.90
34542;DHT22;20784;51.332;12.410;2023-12-20T06:05:07;6.60;99.90
34542;DHT22;20784;51.332;12.410;2023-12-20T06:07:44;6.50;99.90
34542;DHT22;20784;51.332;12.410;2023-12-20T06:10:18;6.50;99.90
34542;DHT22;20784;51.332;12.410;2023-12-20T06:12:47;6.50;99.90
34542;DHT22;20784;51.332;12.410;2023-12-20T06:17:41;6.50;99.90
34542;DHT22;20784;51.332;12.410;2023-12-20T06:20:07;6.60;99.90
34542;DHT22;20784;51.332;12.410;2023-12-20T06:22:34;6.60;99.90
34542;DHT22;20784;51.332;12.410;2023-12-20T06:25:03;6.50;99.90
34542;DHT22;20784;51.332;12.410;2023-12-20T06:27:32;6.50;99.90
34542;DHT22;20784;51.332;12.410;2023-12-20T06:30:03;6.50;99.90
34542;DHT22;20784;51.332;12.410;2023-12-20T06:32:58;6.50;99.90
34542;DHT22;20784;51.332;12.410;2023-12-20T06:35:29;6.40;99.90
34542;DHT22;20784;51.332;12.410;2023-12-20T06:37:55;6.20;99.90
34542;DHT22;20784;51.332;12.410;2023-12-20T06:40:21;6.20;99.90
34542;DHT22;20784;51.332;12.410;2023-12-20T06:42:46;6.10;99.90
34542;DHT22;20784;51.332;12.410;2023-12-20T06:45:12;6.10;99.90
34542;DHT22;20784;51.332;12.410;2023-12-20T06:47:40;6.00;99.90
34542;DHT22;20784;51.332;12.410;2023-12-20T06:50:09;6.00;99.90
34542;DHT22;20784;51.332;12.410;2023-12-20T06:52:37;5.90;99.90
34542;DHT22;20784;51.332;12.410;2023-12-20T06:55:03;5.90;99.90
34542;DHT22;20784;51.332;12.410;2023-12-20T06:57:31;5.80;99.90
34542;DHT22;20784;51.332;12.410;2023-12-20T06:59:57;5.90;99.90
34542;DHT22;20784;51.332;12.410;2023-12-20T07:02:25;5.80;99.90
34542;DHT22;20784;51.332;12.410;2023-12-20T07:05:00;6.00;99.90
34542;DHT22;20784;51.332;12.410;2023-12-20T07:07:48;5.90;99.90
34542;DHT22;20784;51.332;12.410;2023-12-20T07:10:14;5.90;99.90
34542;DHT22;20784;51.332;12.410;2023-12-20T07:12:47;5.90;99.90
34542;DHT22;20784;51.332;12.410;2023-12-20T07:15:41;5.90;99.90
34542;DHT22;20784;51.332;12.410;2023-12-20T07:18:07;5.90;99.90
34542;DHT22;20784;51.332;12.410;2023-12-20T07:20:32;5.90;99.90
34542;DHT22;20784;51.332;12.410;2023-12-20T07:22:58;5.80;99.90
34542;DHT22;20784;51.332;12.410;2023-12-20T07:25:24;5.90;99.90
34542;DHT22;20784;51.332;12.410;2023-12-20T07:27:50;5.90;99.90
34542;DHT22;20784;51.332;12.410;2023-12-20T07:30:15;5.90;99.90
34542;DHT22;20784;51.332;12.410;2023-12-20T07:33:04;5.90;99.90
34542;DHT22;20784;51.332;12.410;2023-12-20T07:35:40;6.00;99.90
34542;DHT22;20784;51.332;12.410;2023-12-20T07:38:09;6.00;99.90
34542;DHT22;20784;51.332;12.410;2023-12-20T07:40:58;6.20;99.90
34542;DHT22;20784;51.332;12.410;2023-12-20T07:43:26;6.10;99.90
34542;DHT22;20784;51.332;12.410;2023-12-20T07:45:52;6.10;99.90
34542;DHT22;20784;51.332;12.410;2023-12-20T07:48:24;6.10;99.90
34542;DHT22;20784;51.332;12.410;2023-12-20T07:50:52;6.10;99.90
34542;DHT22;20784;51.332;12.410;2023-12-20T07:53:19;6.10;99.90
34542;DHT22;20784;51.332;12.410;2023-12-20T07:56:06;6.10;99.90
34542;DHT22;20784;51.332;12.410;2023-12-20T07:58:34;6.10;99.90
34542;DHT22;20784;51.332;12.410;2023-12-20T08:01:04;6.10;99.90
34542;DHT22;20784;51.332;12.410;2023-12-20T08:03:30;6.20;99.90
34542;DHT22;20784;51.332;12.410;2023-12-20T08:05:56;6.20;99.90
34542;DHT22;20784;51.332;12.410;2023-12-20T08:08:27;6.20;99.90
34542;DHT22;20784;51.332;12.410;2023-12-20T08:10:55;6.20;99.90
34542;DHT22;20784;51.332;12.410;2023-12-20T08:13:27;6.20;99.90
34542;DHT22;20784;51.332;12.410;2023-12-20T08:15:56;6.20;99.90
34542;DHT22;20784;51.332;12.410;2023-12-20T08:18:32;6.30;99.90
34542;DHT22;20784;51.332;12.410;2023-12-20T08:21:09;6.30;99.90
34542;DHT22;20784;51.332;12.410;2023-12-20T08:23:46;6.30;99.90
34542;DHT22;20784;51.332;12.410;2023-12-20T08:32:30;6.80;99.90
34542;DHT22;20784;51.332;12.410;2023-12-20T08:35:03;6.70;99.90
34542;DHT22;20784;51.332;12.410;2023-12-20T08:37:35;6.80;99.90
34542;DHT22;20784;51.332;12.410;2023-12-20T08:43:03;9.00;99.90
34542;DHT22;20784;51.332;12.410;2023-12-20T08:48:36;9.50;99.90
34542;DHT22;20784;51.332;12.410;2023-12-20T08:51:28;10.00;99.90
34542;DHT22;20784;51.332;12.410;2023-12-20T08:54:42;10.70;99.90
34542;DHT22;20784;51.332;12.410;2023-12-20T09:00:49;9.60;99.90
34542;DHT22;20784;51.332;12.410;2023-12-20T09:03:26;10.20;99.90
34542;DHT22;20784;51.332;12.410;2023-12-20T09:09:05;12.30;99.90
34542;DHT22;20784;51.332;12.410;2023-12-20T09:12:06;13.10;99.90
34542;DHT22;20784;51.332;12.410;2023-12-20T09:14:59;13.30;99.90
34542;DHT22;20784;51.332;12.410;2023-12-20T09:17:36;13.20;99.90
34542;DHT22;20784;51.332;12.410;2023-12-20T09:20:05;12.80;99.90
34542;DHT22;20784;51.332;12.410;2023-12-20T09:23:10;13.30;99.90
34542;DHT22;20784;51.332;12.410;2023-12-20T09:25:47;13.00;99.90
34542;DHT22;20784;51.332;12.410;2023-12-20T09:28:34;12.00;99.90
34542;DHT22;20784;51.332;12.410;2023-12-20T09:31:06;11.00;99.90
34542;DHT22;20784;51.332;12.410;2023-12-20T09:33:48;9.90;99.90
34542;DHT22;20784;51.332;12.410;2023-12-20T09:36:36;9.00;99.90
34542;DHT22;20784;51.332;12.410;2023-12-20T09:39:18;8.60;99.90
34542;DHT22;20784;51.332;12.410;2023-12-20T09:42:04;8.30;99.90
34542;DHT22;20784;51.332;12.410;2023-12-20T09:44:45;8.80;99.90
34542;DHT22;20784;51.332;12.410;2023-12-20T09:47:22;10.90;99.90
34542;DHT22;20784;51.332;12.410;2023-12-20T09:49:51;12.60;99.90
34542;DHT22;20784;51.332;12.410;2023-12-20T09:52:18;13.20;99.90
34542;DHT22;20784;51.332;12.410;2023-12-20T09:54:49;13.20;99.90
34542;DHT22;20784;51.332;12.410;2023-12-20T09:57:21;14.50;99.90
34542;DHT22;20784;51.332;12.410;2023-12-20T09:59:46;15.20;99.90
34542;DHT22;20784;51.332;12.410;2023-12-20T10:02:13;15.40;99.90
34542;DHT22;20784;51.332;12.410;2023-12-20T10:04:55;14.50;99.90
34542;DHT22;20784;51.332;12.410;2023-12-20T10:07:24;12.80;99.90
34542;DHT22;20784;51.332;12.410;2023-12-20T10:09:57;11.90;99.90
34542;DHT22;20784;51.332;12.410;2023-12-20T10:12:32;10.90;99.90
34542;DHT22;20784;51.332;12.410;2023-12-20T10:14:58;10.20;99.90
34542;DHT22;20784;51.332;12.410;2023-12-20T10:17:27;10.00;99.90
34542;DHT22;20784;51.332;12.410;2023-12-20T10:20:00;11.20;99.90
34542;DHT22;20784;51.332;12.410;2023-12-20T10:22:34;12.70;99.90
34542;DHT22;20784;51.332;12.410;2023-12-20T10:25:00;12.60;99.90
34542;DHT22;20784;51.332;12.410;2023-12-20T10:27:26;11.80;99.90
34542;DHT22;20784;51.332;12.410;2023-12-20T10:29:54;10.90;99.90
34542;DHT22;20784;51.332;12.410;2023-12-20T10:32:26;11.20;99.90
34542;DHT22;20784;51.332;12.410;2023-12-20T10:34:58;12.70;99.90
34542;DHT22;20784;51.332;12.410;2023-12-20T10:37:28;14.20;99.90
34542;DHT22;20784;51.332;12.410;2023-12-20T10:39:54;15.00;99.90
34542;DHT22;20784;51.332;12.410;2023-12-20T10:42:26;15.70;99.90
34542;DHT22;20784;51.332;12.410;2023-12-20T10:44:52;15.10;99.90
34542;DHT22;20784;51.332;12.410;2023-12-20T10:47:28;13.50;99.90
34542;DHT22;20784;51.332;12.410;2023-12-20T10:49:59;12.10;99.90
34542;DHT22;20784;51.332;12.410;2023-12-20T10:52:26;11.70;99.90
34542;DHT22;20784;51.332;12.410;2023-12-20T10:54:58;12.70;99.90
34542;DHT22;20784;51.332;12.410;2023-12-20T10:57:24;13.50;99.90
34542;DHT22;20784;51.332;12.410;2023-12-20T10:59:54;14.70;99.90
34542;DHT22;20784;51.332;12.410;2023-12-20T11:02:21;14.60;99.90
34542;DHT22;20784;51.332;12.410;2023-12-20T11:05:03;13.60;99.90
34542;DHT22;20784;51.332;12.410;2023-12-20T11:07:43;13.20;99.90
34542;DHT22;20784;51.332;12.410;2023-12-20T11:10:16;13.40;99.90
34542;DHT22;20784;51.332;12.410;2023-12-20T11:13:10;12.90;99.90
34542;DHT22;20784;51.332;12.410;2023-12-20T11:15:49;13.00;99.90
34542;DHT22;20784;51.332;12.410;2023-12-20T11:18:17;13.30;99.90
34542;DHT22;20784;51.332;12.410;2023-12-20T11:20:43;12.70;99.90
34542;DHT22;20784;51.332;12.410;2023-12-20T11:23:18;11.70;99.90
34542;DHT22;20784;51.332;12.410;2023-12-20T11:26:13;10.80;99.90
34542;DHT22;20784;51.332;12.410;2023-12-20T11:28:53;10.30;99.90
34542;DHT22;20784;51.332;12.410;2023-12-20T11:31:45;10.20;99.90
34542;DHT22;20784;51.332;12.410;2023-12-20T11:34:18;10.00;99.90
34542;DHT22;20784;51.332;12.410;2023-12-20T11:36:46;9.70;99.90
34542;DHT22;20784;51.332;12.410;2023-12-20T11:39:21;9.90;99.90
34542;DHT22;20784;51.332;12.410;2023-12-20T11:41:55;9.70;99.90
34542;DHT22;20784;51.332;12.410;2023-12-20T11:44:30;9.20;99.90
34542;DHT22;20784;51.332;12.410;2023-12-20T11:47:05;9.00;99.90
34542;DHT22;20784;51.332;12.410;2023-12-20T11:49:32;8.70;99.90
34542;DHT22;20784;51.332;12.410;2023-12-20T11:52:01;8.50;99.90
34542;DHT22;20784;51.332;12.410;2023-12-20T11:54:27;8.40;99.90
34542;DHT22;20784;51.332;12.410;2023-12-20T11:56:56;8.30;99.90
34542;DHT22;20784;51.332;12.410;2023-12-20T11:59:23;8.20;99.90
34542;DHT22;20784;51.332;12.410;2023-12-20T12:01:52;8.10;99.90
34542;DHT22;20784;51.332;12.410;2023-12-20T12:04:49;8.10;99.90
34542;DHT22;20784;51.332;12.410;2023-12-20T12:07:27;8.10;99.90
34542;DHT22;20784;51.332;12.410;2023-12-20T12:09:59;8.10;99.90
34542;DHT22;20784;51.332;12.410;2023-12-20T12:12:34;8.20;99.90
34542;DHT22;20784;51.332;12.410;2023-12-20T12:15:55;8.10;99.90
34542;DHT22;20784;51.332;12.410;2023-12-20T12:18:43;8.00;99.90
34542;DHT22;20784;51.332;12.410;2023-12-20T12:21:09;8.00;99.90
34542;DHT22;20784;51.332;12.410;2023-12-20T12:23:43;8.00;99.90
34542;DHT22;20784;51.332;12.410;2023-12-20T12:26:09;8.00;99.90
34542;DHT22;20784;51.332;12.410;2023-12-20T12:28:41;8.00;99.90
34542;DHT22;20784;51.332;12.410;2023-12-20T12:31:22;8.10;99.90
34542;DHT22;20784;51.332;12.410;2023-12-20T12:33:53;8.00;99.90
34542;DHT22;20784;51.332;12.410;2023-12-20T12:36:23;7.90;99.90
34542;DHT22;20784;51.332;12.410;2023-12-20T12:39:02;7.90;99.90
34542;DHT22;20784;51.332;12.410;2023-12-20T12:41:30;7.90;99.90
34542;DHT22;20784;51.332;12.410;2023-12-20T12:44:16;8.00;99.90
34542;DHT22;20784;51.332;12.410;2023-12-20T12:46:53;8.20;99.90
34542;DHT22;20784;51.332;12.410;2023-12-20T12:49:41;8.10;99.90
34542;DHT22;20784;51.332;12.410;2023-12-20T12:52:16;8.10;99.90
34542;DHT22;20784;51.332;12.410;2023-12-20T12:54:45;8.20;99.90
34542;DHT22;20784;51.332;12.410;2023-12-20T12:57:21;8.20;99.90
34542;DHT22;20784;51.332;12.410;2023-12-20T12:59:53;8.20;99.90
34542;DHT22;20784;51.332;12.410;2023-12-20T13:02:24;8.30;99.90
34542;DHT22;20784;51.332;12.410;2023-12-20T13:04:53;8.40;99.90
34542;DHT22;20784;51.332;12.410;2023-12-20T13:07:30;8.60;99.90
34542;DHT22;20784;51.332;12.410;2023-12-20T13:10:01;8.40;99.90
34542;DHT22;20784;51.332;12.410;2023-12-20T13:12:27;8.50;99.90
34542;DHT22;20784;51.332;12.410;2023-12-20T13:14:58;8.60;99.90
34542;DHT22;20784;51.332;12.410;2023-12-20T13:18:02;8.50;99.90
34542;DHT22;20784;51.332;12.410;2023-12-20T13:20:34;8.50;99.90
34542;DHT22;20784;51.332;12.410;2023-12-20T13:23:11;8.40;99.90
34542;DHT22;20784;51.332;12.410;2023-12-20T13:25:39;8.40;99.90
34542;DHT22;20784;51.332;12.410;2023-12-20T13:28:21;8.50;99.90
34542;DHT22;20784;51.332;12.410;2023-12-20T13:30:59;8.50;99.90
34542;DHT22;20784;51.332;12.410;2023-12-20T13:33:25;8.50;99.90
34542;DHT22;20784;51.332;12.410;2023-12-20T13:35:59;8.40;99.90
34542;DHT22;20784;51.332;12.410;2023-12-20T13:38:25;8.50;99.90
34542;DHT22;20784;51.332;12.410;2023-12-20T13:40:50;8.30;99.90
34542;DHT22;20784;51.332;12.410;2023-12-20T13:43:19;8.30;99.90
34542;DHT22;20784;51.332;12.410;2023-12-20T13:45:47;8.30;99.90
34542;DHT22;20784;51.332;12.410;2023-12-20T13:48:13;8.30;99.90
34542;DHT22;20784;51.332;12.410;2023-12-20T13:50:39;8.30;99.90
34542;DHT22;20784;51.332;12.410;2023-12-20T13:53:04;8.30;99.90
34542;DHT22;20784;51.332;12.410;2023-12-20T13:55:30;8.20;99.90
34542;DHT22;20784;51.332;12.410;2023-12-20T13:58:04;8.10;99.90
34542;DHT22;20784;51.332;12.410;2023-12-20T14:00:40;8.20;99.90
34542;DHT22;20784;51.332;12.410;2023-12-20T14:03:09;8.10;99.90
34542;DHT22;20784;51.332;12.410;2023-12-20T14:05:38;8.00;99.90
34542;DHT22;20784;51.332;12.410;2023-12-20T14:08:13;8.00;99.90
34542;DHT22;20784;51.332;12.410;2023-12-20T14:10:39;7.90;99.90
34542;DHT22;20784;51.332;12.410;2023-12-20T14:19:50;7.90;99.90
34542;DHT22;20784;51.332;12.410;2023-12-20T14:29:49;7.60;99.90
34542;DHT22;20784;51.332;12.410;2023-12-20T14:36:26;7.70;99.90
34542;DHT22;20784;51.332;12.410;2023-12-20T14:39:25;7.70;99.90
34542;DHT22;20784;51.332;12.410;2023-12-20T14:42:02;7.70;99.90
34542;DHT22;20784;51.332;12.410;2023-12-20T14:44:38;7.60;99.90
34542;DHT22;20784;51.332;12.410;2023-12-20T14:47:06;7.60;99.90
34542;DHT22;20784;51.332;12.410;2023-12-20T14:49:35;7.70;99.90
34542;DHT22;20784;51.332;12.410;2023-12-20T14:52:17;7.60;99.90
34542;DHT22;20784;51.332;12.410;2023-12-20T14:54:45;7.60;99.90
34542;DHT22;20784;51.332;12.410;2023-12-20T14:57:17;7.60;99.90
34542;DHT22;20784;51.332;12.410;2023-12-20T14:59:45;7.60;99.90
34542;DHT22;20784;51.332;12.410;2023-12-20T15:02:12;7.60;99.90
34542;DHT22;20784;51.332;12.410;2023-12-20T15:04:38;7.60;99.90
34542;DHT22;20784;51.332;12.410;2023-12-20T15:07:16;7.60;99.90
34542;DHT22;20784;51.332;12.410;2023-12-20T15:09:45;7.60;99.90
34542;DHT22;20784;51.332;12.410;2023-12-20T15:12:18;7.60;99.90
34542;DHT22;20784;51.332;12.410;2023-12-20T15:15:21;7.60;99.90
34542;DHT22;20784;51.332;12.410;2023-12-20T15:22:02;7.60;99.90
34542;DHT22;20784;51.332;12.410;2023-12-20T15:39:31;7.50;99.90
34542;DHT22;20784;51.332;12.410;2023-12-20T15:42:41;7.50;99.90
34542;DHT22;20784;51.332;12.410;2023-12-20T17:16:21;7.20;99.90
34542;DHT22;20784;51.332;12.410;2023-12-20T17:19:10;7.20;99.90
34542;DHT22;20784;51.332;12.410;2023-12-20T17:21:42;7.20;99.90
34542;DHT22;20784;51.332;12.410;2023-12-20T17:24:08;7.20;99.90
34542;DHT22;20784;51.332;12.410;2023-12-20T17:27:05;7.10;99.90
34542;DHT22;20784;51.332;12.410;2023-12-20T17:29:54;7.10;99.90
34542;DHT22;20784;51.332;12.410;2023-12-20T17:33:07;7.20;99.90
34542;DHT22;20784;51.332;12.410;2023-12-20T18:02:56;7.00;99.90
34542;DHT22;20784;51.332;12.410;2023-12-20T18:05:49;7.00;99.90
34542;DHT22;20784;51.332;12.410;2023-12-20T18:08:47;7.00;99.90
34542;DHT22;20784;51.332;12.410;2023-12-20T18:17:22;7.00;99.90
34542;DHT22;20784;51.332;12.410;2023-12-20T18:20:12;6.90;99.90
34542;DHT22;20784;51.332;12.410;2023-12-20T18:23:11;6.90;99.90
34542;DHT22;20784;51.332;12.410;2023-12-20T18:25:42;6.90;99.90
34542;DHT22;20784;51.332;12.410;2023-12-20T18:31:49;7.00;99.90
34542;DHT22;20784;51.332;12.410;2023-12-20T18:34:33;6.90;99.90
34542;DHT22;20784;51.332;12.410;2023-12-20T18:37:04;6.90;99.90
34542;DHT22;20784;51.332;12.410;2023-12-20T18:39:35;6.90;99.90
34542;DHT22;20784;51.332;12.410;2023-12-20T18:42:11;6.90;99.90
34542;DHT22;20784;51.332;12.410;2023-12-20T18:44:57;6.90;99.90
34542;DHT22;20784;51.332;12.410;2023-12-20T18:47:36;6.90;99.90
34542;DHT22;20784;51.332;12.410;2023-12-20T18:50:10;6.90;99.90
34542;DHT22;20784;51.332;12.410;2023-12-20T18:53:07;6.90;99.90
34542;DHT22;20784;51.332;12.410;2023-12-20T18:56:08;6.90;99.90
34542;DHT22;20784;51.332;12.410;2023-12-20T19:02:48;6.90;99.90
34542;DHT22;20784;51.332;12.410;2023-12-20T19:05:20;6.90;99.90
34542;DHT22;20784;51.332;12.410;2023-12-20T19:07:57;6.90;99.90